createdAt,value
2018-08-22T00:00:47.920Z,61.20
2018-08-22T00:01:51.340Z,61.20
2018-08-22T00:02:54.721Z,61.30
2018-08-22T00:03:58.107Z,61.30
2018-08-22T00:05:01.488Z,61.40
2018-08-22T00:06:05.966Z,61.50
2018-08-22T00:07:09.391Z,61.50
2018-08-22T00:08:12.779Z,61.60
2018-08-22T00:09:16.172Z,61.70
2018-08-22T00:10:20.506Z,61.70
2018-08-22T00:11:24.408Z,61.70
2018-08-22T00:12:27.831Z,61.70
2018-08-22T00:13:31.249Z,61.80
2018-08-22T00:14:34.633Z,61.70
2018-08-22T00:15:39.118Z,61.80
2018-08-22T00:16:42.524Z,61.90
2018-08-22T00:17:45.923Z,61.90
2018-08-22T00:18:49.315Z,62.50
2018-08-22T00:19:52.692Z,61.90
2018-08-22T00:20:57.031Z,61.90
2018-08-22T00:22:00.429Z,62.00
2018-08-22T00:23:03.823Z,62.10
2018-08-22T00:24:07.212Z,62.10
2018-08-22T00:25:18.219Z,62.50
2018-08-22T00:26:22.967Z,62.10
2018-08-22T00:27:26.417Z,62.30
2018-08-22T00:28:29.807Z,62.20
2018-08-22T00:29:33.255Z,62.20
2018-08-22T00:30:37.830Z,62.30
2018-08-22T00:31:41.251Z,63.10
2018-08-22T00:32:44.627Z,62.50
2018-08-22T00:33:48.027Z,61.90
2018-08-22T00:34:51.403Z,62.60
2018-08-22T00:35:55.659Z,62.70
2018-08-22T00:36:59.051Z,62.80
2018-08-22T00:38:02.439Z,62.80
2018-08-22T00:39:07.176Z,62.90
2018-08-22T00:40:11.610Z,63.00
2018-08-22T00:41:16.019Z,63.10
2018-08-22T00:42:19.412Z,63.20
2018-08-22T00:43:22.793Z,63.20
2018-08-22T00:44:26.191Z,63.70
2018-08-22T00:45:30.588Z,64.10
2018-08-22T00:46:33.979Z,63.50
2018-08-22T00:47:37.376Z,63.60
2018-08-22T00:48:40.803Z,63.80
2018-08-22T00:49:44.195Z,63.90
2018-08-22T00:50:48.766Z,64.00
2018-08-22T00:51:52.181Z,64.10
2018-08-22T00:52:55.579Z,64.10
2018-08-22T00:53:58.975Z,64.20
2018-08-22T00:55:03.153Z,64.30
2018-08-22T00:56:07.514Z,64.40
2018-08-22T00:57:10.927Z,64.60
2018-08-22T00:58:14.307Z,64.60
2018-08-22T00:59:17.716Z,64.70
2018-08-22T01:00:22.266Z,64.70
2018-08-22T01:01:26.996Z,64.70
2018-08-22T01:02:30.395Z,64.70
2018-08-22T01:03:33.783Z,64.90
2018-08-22T01:04:37.208Z,64.90
2018-08-22T01:05:41.771Z,65.40
2018-08-22T01:06:45.167Z,64.90
2018-08-22T01:07:48.539Z,65.00
2018-08-22T01:08:51.928Z,64.90
2018-08-22T01:09:55.319Z,65.20
2018-08-22T01:10:59.819Z,65.30
2018-08-22T01:12:03.244Z,65.50
2018-08-22T01:13:06.628Z,65.70
2018-08-22T01:14:10.012Z,65.70
2018-08-22T01:15:14.544Z,65.80
2018-08-22T01:16:19.533Z,65.90
2018-08-22T01:17:22.948Z,66.00
2018-08-22T01:18:26.343Z,66.20
2018-08-22T01:19:29.728Z,66.40
2018-08-22T01:20:34.180Z,66.40
2018-08-22T01:21:37.583Z,66.60
2018-08-22T01:22:40.955Z,66.80
2018-08-22T01:23:44.347Z,66.90
2018-08-22T01:24:47.724Z,66.90
2018-08-22T01:25:52.470Z,66.90
2018-08-22T01:26:55.976Z,67.00
2018-08-22T01:27:59.355Z,67.00
2018-08-22T01:29:02.749Z,67.00
2018-08-22T01:30:07.108Z,67.10
2018-08-22T01:31:11.685Z,67.10
2018-08-22T01:32:15.092Z,67.20
2018-08-22T01:33:18.468Z,67.20
2018-08-22T01:34:21.856Z,67.30
2018-08-22T01:35:26.267Z,67.30
2018-08-22T01:36:30.899Z,67.30
2018-08-22T01:37:34.286Z,67.30
2018-08-22T01:38:37.664Z,67.30
2018-08-22T01:39:41.063Z,67.30
2018-08-22T01:40:45.631Z,67.30
2018-08-22T01:41:49.029Z,67.40
2018-08-22T01:42:52.410Z,67.50
2018-08-22T01:43:55.790Z,67.60
2018-08-22T01:44:59.182Z,67.60
2018-08-22T01:46:03.517Z,67.80
2018-08-22T01:47:06.939Z,67.80
2018-08-22T01:48:10.323Z,67.80
2018-08-22T01:49:13.735Z,68.00
2018-08-22T01:50:18.133Z,68.90
2018-08-22T01:51:22.595Z,68.30
2018-08-22T01:52:25.967Z,68.40
2018-08-22T01:53:29.367Z,68.40
2018-08-22T01:54:32.739Z,68.50
2018-08-22T01:55:37.432Z,68.50
2018-08-22T01:56:40.847Z,68.70
2018-08-22T01:57:44.219Z,68.70
2018-08-22T01:58:47.684Z,68.90
2018-08-22T01:59:50.992Z,69.00
2018-08-22T02:00:55.391Z,69.10
2018-08-22T02:01:58.807Z,69.30
2018-08-22T02:03:02.307Z,70.10
2018-08-22T02:04:05.844Z,69.40
2018-08-22T02:05:17.064Z,69.50
2018-08-22T02:06:21.548Z,69.60
2018-08-22T02:07:24.939Z,69.70
2018-08-22T02:08:28.331Z,69.70
2018-08-22T02:09:31.721Z,69.80
2018-08-22T02:10:36.098Z,69.80
2018-08-22T02:11:39.747Z,69.90
2018-08-22T02:12:43.151Z,69.90
2018-08-22T02:13:46.522Z,70.00
2018-08-22T02:14:49.939Z,70.70
2018-08-22T02:15:54.466Z,70.10
2018-08-22T02:16:57.995Z,70.20
2018-08-22T02:18:01.671Z,70.20
2018-08-22T02:19:05.571Z,70.10
2018-08-22T02:20:09.809Z,70.30
2018-08-22T02:21:14.635Z,70.30
2018-08-22T02:22:18.071Z,70.40
2018-08-22T02:23:21.453Z,70.50
2018-08-22T02:24:24.835Z,70.60
2018-08-22T02:25:29.320Z,70.70
2018-08-22T02:26:33.284Z,70.80
2018-08-22T02:27:36.719Z,70.80
2018-08-22T02:28:40.116Z,70.90
2018-08-22T02:29:43.505Z,70.90
2018-08-22T02:30:48.023Z,71.00
2018-08-22T02:31:51.455Z,71.00
2018-08-22T02:32:54.828Z,71.10
2018-08-22T02:33:58.223Z,71.30
2018-08-22T02:35:01.624Z,71.30
2018-08-22T02:36:06.192Z,71.60
2018-08-22T02:37:09.619Z,72.20
2018-08-22T02:38:17.115Z,71.60
2018-08-22T02:39:20.487Z,71.80
2018-08-22T02:40:24.898Z,71.80
2018-08-22T02:41:29.268Z,71.90
2018-08-22T02:42:32.675Z,71.80
2018-08-22T02:43:36.054Z,71.80
2018-08-22T02:44:39.468Z,71.80
2018-08-22T02:45:43.756Z,71.90
2018-08-22T02:46:47.163Z,72.00
2018-08-22T02:47:50.559Z,72.00
2018-08-22T02:48:55.634Z,72.00
2018-08-22T02:49:59.019Z,72.00
2018-08-22T02:51:03.369Z,72.10
2018-08-22T02:52:06.759Z,72.10
2018-08-22T02:53:10.147Z,72.10
2018-08-22T02:54:13.531Z,72.10
2018-08-22T02:55:18.022Z,72.20
2018-08-22T02:56:23.235Z,72.30
2018-08-22T02:57:26.612Z,72.30
2018-08-22T02:58:30.011Z,72.30
2018-08-22T02:59:33.431Z,72.30
2018-08-22T03:00:38.074Z,72.30
2018-08-22T03:01:41.492Z,72.40
2018-08-22T03:02:44.923Z,72.40
2018-08-22T03:03:48.315Z,72.50
2018-08-22T03:04:51.708Z,72.40
2018-08-22T03:05:56.132Z,72.60
2018-08-22T03:06:59.535Z,72.60
2018-08-22T03:08:02.963Z,72.60
2018-08-22T03:09:07.639Z,72.60
2018-08-22T03:10:12.578Z,72.80
2018-08-22T03:11:17.176Z,72.60
2018-08-22T03:12:20.592Z,72.60
2018-08-22T03:13:23.991Z,72.60
2018-08-22T03:14:27.375Z,72.60
2018-08-22T03:15:31.761Z,72.20
2018-08-22T03:16:35.175Z,72.80
2018-08-22T03:17:38.573Z,72.80
2018-08-22T03:18:41.977Z,72.80
2018-08-22T03:19:45.378Z,72.80
2018-08-22T03:20:49.821Z,72.80
2018-08-22T03:21:53.228Z,72.90
2018-08-22T03:22:56.612Z,72.90
2018-08-22T03:24:00.020Z,72.90
2018-08-22T03:25:03.834Z,73.50
2018-08-22T03:26:08.846Z,72.90
2018-08-22T03:27:12.255Z,73.00
2018-08-22T03:28:15.667Z,73.10
2018-08-22T03:29:19.087Z,73.10
2018-08-22T03:30:24.143Z,73.20
2018-08-22T03:31:28.991Z,73.30
2018-08-22T03:32:32.382Z,73.30
2018-08-22T03:33:35.785Z,73.20
2018-08-22T03:34:39.182Z,73.50
2018-08-22T03:35:44.331Z,73.70
2018-08-22T03:36:47.728Z,74.50
2018-08-22T03:37:51.113Z,73.80
2018-08-22T03:38:54.500Z,74.00
2018-08-22T03:39:57.923Z,74.00
2018-08-22T03:41:02.310Z,74.20
2018-08-22T03:42:05.695Z,74.30
2018-08-22T03:43:09.079Z,74.90
2018-08-22T03:44:12.464Z,74.40
2018-08-22T03:45:17.586Z,74.40
2018-08-22T03:46:22.352Z,74.60
2018-08-22T03:47:25.727Z,75.30
2018-08-22T03:48:29.107Z,74.80
2018-08-22T03:49:32.492Z,74.90
2018-08-22T03:50:36.969Z,75.00
2018-08-22T03:51:40.375Z,75.00
2018-08-22T03:52:43.868Z,75.10
2018-08-22T03:53:47.288Z,75.20
2018-08-22T03:54:50.635Z,75.40
2018-08-22T03:55:55.135Z,75.50
2018-08-22T03:56:58.555Z,75.60
2018-08-22T03:58:01.931Z,75.70
2018-08-22T03:59:05.319Z,75.80
2018-08-22T04:00:10.941Z,75.80
2018-08-22T04:01:15.486Z,75.90
2018-08-22T04:02:18.886Z,76.10
2018-08-22T04:03:22.304Z,76.20
2018-08-22T04:04:25.679Z,76.70
2018-08-22T04:05:30.045Z,76.40
2018-08-22T04:06:33.438Z,76.40
2018-08-22T04:07:36.831Z,76.50
2018-08-22T04:08:40.227Z,76.60
2018-08-22T04:09:43.618Z,76.70
2018-08-22T04:10:47.930Z,76.70
2018-08-22T04:11:51.344Z,76.80
2018-08-22T04:12:57.641Z,76.80
2018-08-22T04:14:01.017Z,76.80
2018-08-22T04:15:05.096Z,76.90
2018-08-22T04:16:09.472Z,76.90
2018-08-22T04:17:12.878Z,77.00
2018-08-22T04:18:16.264Z,77.00
2018-08-22T04:19:19.666Z,77.00
2018-08-22T04:20:24.195Z,77.00
2018-08-22T04:21:28.682Z,77.00
2018-08-22T04:22:32.096Z,77.30
2018-08-22T04:23:35.487Z,76.90
2018-08-22T04:24:38.895Z,76.90
2018-08-22T04:25:43.346Z,76.90
2018-08-22T04:26:46.807Z,77.70
2018-08-22T04:27:50.183Z,77.10
2018-08-22T04:28:53.567Z,77.20
2018-08-22T04:29:56.967Z,77.30
2018-08-22T04:31:01.718Z,77.30
2018-08-22T04:32:05.439Z,77.40
2018-08-22T04:33:08.825Z,77.50
2018-08-22T04:34:12.207Z,77.50
2018-08-22T04:35:16.631Z,77.60
2018-08-22T04:36:21.166Z,77.60
2018-08-22T04:37:24.727Z,77.60
2018-08-22T04:38:28.099Z,77.70
2018-08-22T04:39:31.475Z,77.70
2018-08-22T04:40:36.090Z,78.30
2018-08-22T04:41:39.507Z,77.70
2018-08-22T04:42:42.907Z,77.70
2018-08-22T04:43:46.287Z,77.60
2018-08-22T04:44:49.950Z,77.70
2018-08-22T04:45:54.809Z,77.70
2018-08-22T04:46:58.229Z,77.80
2018-08-22T04:48:01.639Z,77.90
2018-08-22T04:49:05.020Z,77.90
2018-08-22T04:50:09.473Z,77.90
2018-08-22T04:51:14.113Z,78.70
2018-08-22T04:52:17.762Z,78.20
2018-08-22T04:53:21.167Z,78.20
2018-08-22T04:54:24.550Z,78.20
2018-08-22T04:55:28.664Z,78.30
2018-08-22T04:56:32.059Z,78.30
2018-08-22T04:57:35.447Z,78.30
2018-08-22T04:58:38.851Z,78.40
2018-08-22T04:59:42.242Z,78.40
2018-08-22T05:00:46.434Z,78.50
2018-08-22T05:01:49.843Z,78.60
2018-08-22T05:02:53.219Z,78.70
2018-08-22T05:03:56.611Z,78.80
2018-08-22T05:05:00.026Z,78.90
2018-08-22T05:06:05.371Z,79.00
2018-08-22T05:07:08.719Z,79.10
2018-08-22T05:08:12.099Z,79.00
2018-08-22T05:09:15.504Z,79.10
2018-08-22T05:10:19.940Z,79.20
2018-08-22T05:11:23.906Z,79.20
2018-08-22T05:12:27.295Z,79.40
2018-08-22T05:13:30.691Z,79.40
2018-08-22T05:14:34.095Z,79.30
2018-08-22T05:15:38.474Z,79.30
2018-08-22T05:16:41.919Z,79.40
2018-08-22T05:17:45.328Z,79.70
2018-08-22T05:18:48.717Z,79.20
2018-08-22T05:19:52.127Z,79.20
2018-08-22T05:20:56.753Z,78.90
2018-08-22T05:22:00.180Z,78.80
2018-08-22T05:23:03.837Z,78.70
2018-08-22T05:24:07.235Z,78.50
2018-08-22T05:25:11.881Z,78.20
2018-08-22T05:26:16.435Z,78.10
2018-08-22T05:27:19.847Z,77.90
2018-08-22T05:28:23.219Z,77.80
2018-08-22T05:29:26.593Z,77.60
2018-08-22T05:30:30.965Z,77.50
2018-08-22T05:31:34.368Z,77.50
2018-08-22T05:32:37.757Z,77.10
2018-08-22T05:33:41.143Z,77.10
2018-08-22T05:34:44.532Z,77.10
2018-08-22T05:35:49.429Z,77.00
2018-08-22T05:36:52.827Z,77.00
2018-08-22T05:37:56.224Z,77.50
2018-08-22T05:38:59.607Z,76.90
2018-08-22T05:40:03.186Z,76.80
2018-08-22T05:41:07.752Z,76.80
2018-08-22T05:42:11.191Z,76.70
2018-08-22T05:43:14.595Z,76.60
2018-08-22T05:44:18.037Z,76.50
2018-08-22T05:45:22.610Z,76.50
2018-08-22T05:46:27.510Z,76.50
2018-08-22T05:47:30.920Z,76.40
2018-08-22T05:48:34.296Z,76.30
2018-08-22T05:49:37.679Z,76.20
2018-08-22T05:50:42.294Z,76.20
2018-08-22T05:51:45.712Z,76.10
2018-08-22T05:52:49.092Z,76.10
2018-08-22T05:53:52.560Z,76.80
2018-08-22T05:54:55.975Z,76.10
2018-08-22T05:56:00.436Z,76.00
2018-08-22T05:57:03.854Z,76.10
2018-08-22T05:58:07.227Z,76.00
2018-08-22T05:59:10.975Z,76.00
2018-08-22T06:00:15.537Z,76.00
2018-08-22T06:01:20.318Z,76.00
2018-08-22T06:02:23.740Z,76.00
2018-08-22T06:03:27.134Z,76.00
2018-08-22T06:04:30.512Z,76.00
2018-08-22T06:05:35.714Z,76.00
2018-08-22T06:06:39.140Z,76.00
2018-08-22T06:07:42.543Z,75.90
2018-08-22T06:08:45.925Z,76.00
2018-08-22T06:09:49.293Z,76.10
2018-08-22T06:10:54.379Z,76.00
2018-08-22T06:11:57.797Z,76.00
2018-08-22T06:13:01.191Z,76.00
2018-08-22T06:14:04.581Z,76.00
2018-08-22T06:15:08.960Z,76.00
2018-08-22T06:16:13.444Z,76.00
2018-08-22T06:17:16.835Z,76.00
2018-08-22T06:18:20.239Z,76.00
2018-08-22T06:19:23.609Z,75.80
2018-08-22T06:20:28.033Z,75.80
2018-08-22T06:21:31.716Z,75.80
2018-08-22T06:22:35.087Z,75.70
2018-08-22T06:23:38.511Z,75.70
2018-08-22T06:24:41.887Z,75.60
2018-08-22T06:25:46.300Z,75.60
2018-08-22T06:26:49.902Z,75.60
2018-08-22T06:27:53.301Z,75.60
2018-08-22T06:28:56.680Z,75.60
2018-08-22T06:30:00.068Z,75.50
2018-08-22T06:31:04.438Z,75.50
2018-08-22T06:32:07.851Z,75.50
2018-08-22T06:33:11.248Z,75.50
2018-08-22T06:34:14.635Z,75.50
2018-08-22T06:35:18.984Z,75.40
2018-08-22T06:36:23.364Z,75.30
2018-08-22T06:37:26.707Z,75.30
2018-08-22T06:38:30.100Z,75.30
2018-08-22T06:39:33.485Z,75.30
2018-08-22T06:40:38.011Z,75.30
2018-08-22T06:41:41.507Z,75.30
2018-08-22T06:42:44.905Z,75.30
2018-08-22T06:43:48.293Z,75.30
2018-08-22T06:44:51.887Z,75.20
2018-08-22T06:45:56.223Z,75.10
2018-08-22T06:46:59.781Z,75.30
2018-08-22T06:48:03.212Z,75.20
2018-08-22T06:49:06.608Z,75.30
2018-08-22T06:50:11.079Z,75.20
2018-08-22T06:51:21.795Z,75.10
2018-08-22T06:52:25.167Z,75.10
2018-08-22T06:53:28.575Z,75.10
2018-08-22T06:54:31.951Z,75.00
2018-08-22T06:55:36.607Z,74.90
2018-08-22T06:56:40.167Z,74.80
2018-08-22T06:57:43.560Z,74.80
2018-08-22T06:58:46.983Z,74.70
2018-08-22T06:59:50.408Z,74.80
2018-08-22T07:00:55.265Z,74.80
2018-08-22T07:01:58.679Z,74.80
2018-08-22T07:03:02.071Z,74.80
2018-08-22T07:04:05.691Z,75.00
2018-08-22T07:05:10.172Z,75.00
2018-08-22T07:06:14.563Z,75.10
2018-08-22T07:07:18.099Z,75.10
2018-08-22T07:08:21.498Z,75.30
2018-08-22T07:09:24.888Z,75.20
2018-08-22T07:10:29.424Z,75.30
2018-08-22T07:11:32.807Z,75.30
2018-08-22T07:12:36.184Z,75.30
2018-08-22T07:13:39.591Z,75.20
2018-08-22T07:14:42.979Z,75.20
2018-08-22T07:15:47.910Z,75.30
2018-08-22T07:16:51.335Z,75.30
2018-08-22T07:17:54.719Z,75.20
2018-08-22T07:18:58.175Z,75.10
2018-08-22T07:20:01.680Z,75.10
2018-08-22T07:21:06.634Z,75.20
2018-08-22T07:22:10.067Z,75.30
2018-08-22T07:23:13.460Z,75.30
2018-08-22T07:24:16.891Z,76.10
2018-08-22T07:25:21.843Z,75.40
2018-08-22T07:26:26.055Z,75.30
2018-08-22T07:27:29.495Z,75.40
2018-08-22T07:28:32.881Z,75.40
2018-08-22T07:29:36.279Z,75.30
2018-08-22T07:30:40.718Z,75.50
2018-08-22T07:31:44.143Z,75.50
2018-08-22T07:32:47.544Z,75.70
2018-08-22T07:33:51.159Z,75.70
2018-08-22T07:34:54.539Z,75.60
2018-08-22T07:35:58.962Z,75.50
2018-08-22T07:37:02.379Z,75.50
2018-08-22T07:38:05.765Z,76.40
2018-08-22T07:39:11.379Z,75.20
2018-08-22T07:40:15.725Z,75.70
2018-08-22T07:41:20.332Z,75.80
2018-08-22T07:42:23.734Z,76.00
2018-08-22T07:43:27.138Z,76.10
2018-08-22T07:44:30.531Z,76.20
2018-08-22T07:45:35.018Z,76.20
2018-08-22T07:46:38.412Z,76.20
2018-08-22T07:47:41.794Z,76.20
2018-08-22T07:48:45.176Z,76.30
2018-08-22T07:49:48.573Z,76.40
2018-08-22T07:50:53.048Z,76.50
2018-08-22T07:51:56.451Z,76.40
2018-08-22T07:53:02.696Z,76.40
2018-08-22T07:54:06.068Z,76.40
2018-08-22T07:55:10.526Z,77.00
2018-08-22T07:56:15.160Z,76.70
2018-08-22T07:57:22.231Z,76.80
2018-08-22T07:58:25.619Z,76.90
2018-08-22T07:59:29.048Z,76.80
2018-08-22T08:00:34.419Z,76.80
2018-08-22T08:01:38.645Z,77.00
2018-08-22T08:02:42.048Z,77.00
2018-08-22T08:03:45.427Z,77.10
2018-08-22T08:04:48.863Z,77.10
2018-08-22T08:05:53.297Z,77.20
2018-08-22T08:06:56.719Z,77.20
2018-08-22T08:08:00.109Z,77.10
2018-08-22T08:09:04.259Z,77.00
2018-08-22T08:10:09.284Z,77.00
2018-08-22T08:11:14.420Z,76.90
2018-08-22T08:12:20.180Z,76.90
2018-08-22T08:13:29.638Z,76.90
2018-08-22T08:14:33.007Z,76.80
2018-08-22T08:15:37.942Z,76.80
2018-08-22T08:16:41.337Z,76.90
2018-08-22T08:17:44.715Z,76.60
2018-08-22T08:18:48.891Z,76.90
2018-08-22T08:19:52.292Z,77.50
2018-08-22T08:20:56.775Z,76.90
2018-08-22T08:22:00.195Z,77.00
2018-08-22T08:23:03.595Z,77.10
2018-08-22T08:24:07.571Z,77.00
2018-08-22T08:25:12.145Z,76.90
2018-08-22T08:26:17.038Z,76.70
2018-08-22T08:27:23.411Z,76.70
2018-08-22T08:28:26.807Z,76.70
2018-08-22T08:29:30.191Z,76.70
2018-08-22T08:30:36.420Z,76.70
2018-08-22T08:31:39.847Z,76.70
2018-08-22T08:32:43.559Z,76.50
2018-08-22T08:33:46.936Z,76.30
2018-08-22T08:34:50.381Z,76.20
2018-08-22T08:35:54.950Z,76.10
2018-08-22T08:36:58.375Z,76.20
2018-08-22T08:38:01.767Z,76.30
2018-08-22T08:39:08.040Z,76.30
2018-08-22T08:40:12.524Z,76.30
2018-08-22T08:41:17.177Z,76.20
2018-08-22T08:42:20.627Z,76.20
2018-08-22T08:43:24.027Z,75.80
2018-08-22T08:44:27.403Z,75.60
2018-08-22T08:45:31.903Z,75.30
2018-08-22T08:46:35.296Z,75.00
2018-08-22T08:47:38.787Z,74.60
2018-08-22T08:48:42.207Z,74.60
2018-08-22T08:49:45.600Z,74.30
2018-08-22T08:50:50.089Z,74.00
2018-08-22T08:52:00.552Z,74.00
2018-08-22T08:53:03.926Z,73.80
2018-08-22T08:54:07.314Z,73.70
2018-08-22T08:55:11.801Z,73.60
2018-08-22T08:56:16.377Z,73.40
2018-08-22T08:57:19.966Z,73.40
2018-08-22T08:58:23.277Z,73.30
2018-08-22T08:59:26.658Z,72.80
2018-08-22T09:00:31.035Z,73.20
2018-08-22T09:01:34.495Z,73.30
2018-08-22T09:02:37.875Z,73.30
2018-08-22T09:03:41.344Z,73.20
2018-08-22T09:04:44.675Z,73.30
2018-08-22T09:05:49.837Z,73.20
2018-08-22T09:06:53.245Z,73.00
2018-08-22T09:07:56.631Z,73.00
2018-08-22T09:09:00.020Z,72.80
2018-08-22T09:10:03.542Z,72.70
2018-08-22T09:11:08.059Z,72.90
2018-08-22T09:12:11.520Z,72.30
2018-08-22T09:13:14.867Z,72.10
2018-08-22T09:14:18.252Z,72.10
2018-08-22T09:15:23.135Z,72.10
2018-08-22T09:16:27.655Z,71.90
2018-08-22T09:17:31.107Z,71.80
2018-08-22T09:18:34.483Z,71.60
2018-08-22T09:19:37.930Z,71.10
2018-08-22T09:20:42.368Z,71.20
2018-08-22T09:21:45.805Z,71.20
2018-08-22T09:22:49.212Z,71.30
2018-08-22T09:23:52.613Z,71.40
2018-08-22T09:24:56.028Z,71.50
2018-08-22T09:26:00.461Z,71.50
2018-08-22T09:27:03.928Z,71.70
2018-08-22T09:28:07.400Z,71.50
2018-08-22T09:29:10.871Z,71.30
2018-08-22T09:30:15.397Z,71.20
2018-08-22T09:31:20.015Z,71.20
2018-08-22T09:32:23.439Z,71.10
2018-08-22T09:33:26.847Z,70.90
2018-08-22T09:34:30.249Z,70.70
2018-08-22T09:35:34.667Z,70.60
2018-08-22T09:36:38.107Z,70.50
2018-08-22T09:37:41.487Z,70.40
2018-08-22T09:38:44.891Z,70.30
2018-08-22T09:39:48.366Z,70.50
2018-08-22T09:40:52.775Z,70.50
2018-08-22T09:41:56.199Z,70.50
2018-08-22T09:42:59.583Z,70.50
2018-08-22T09:44:03.160Z,70.30
2018-08-22T09:45:08.026Z,70.10
2018-08-22T09:46:12.552Z,69.90
2018-08-22T09:47:15.985Z,69.70
2018-08-22T09:48:19.396Z,69.20
2018-08-22T09:49:22.819Z,69.10
2018-08-22T09:50:27.403Z,69.00
2018-08-22T09:51:30.807Z,69.10
2018-08-22T09:52:34.252Z,69.10
2018-08-22T09:53:37.652Z,69.20
2018-08-22T09:54:54.647Z,69.30
2018-08-22T09:56:00.367Z,69.70
2018-08-22T09:57:03.783Z,69.80
2018-08-22T09:58:07.194Z,69.70
2018-08-22T09:59:10.587Z,69.60
2018-08-22T10:00:20.025Z,69.40
2018-08-22T10:01:29.396Z,69.50
2018-08-22T10:02:32.781Z,69.60
2018-08-22T10:04:44.416Z,69.60
2018-08-22T10:05:49.437Z,69.60
2018-08-22T10:06:52.926Z,69.50
2018-08-22T10:07:56.244Z,69.50
2018-08-22T10:09:01.826Z,69.40
2018-08-22T10:10:06.155Z,69.20
2018-08-22T10:11:10.561Z,69.20
2018-08-22T10:12:13.959Z,69.20
2018-08-22T10:13:17.359Z,69.40
2018-08-22T10:14:20.783Z,69.50
2018-08-22T10:15:25.413Z,69.70
2018-08-22T10:16:30.199Z,70.00
2018-08-22T10:17:33.596Z,70.30
2018-08-22T10:18:36.980Z,70.30
2018-08-22T10:19:40.549Z,70.40
2018-08-22T10:20:45.010Z,70.60
2018-08-22T10:21:48.439Z,70.80
2018-08-22T10:22:51.823Z,70.80
2018-08-22T10:23:55.255Z,70.90
2018-08-22T10:24:58.627Z,70.90
2018-08-22T10:26:02.996Z,70.90
2018-08-22T10:27:06.398Z,71.00
2018-08-22T10:28:09.785Z,70.90
2018-08-22T10:29:13.208Z,70.70
2018-08-22T10:30:17.646Z,70.70
2018-08-22T10:31:22.219Z,70.50
2018-08-22T10:32:25.636Z,70.40
2018-08-22T10:33:29.048Z,70.30
2018-08-22T10:34:32.808Z,69.70
2018-08-22T10:35:37.324Z,69.80
2018-08-22T10:36:40.756Z,69.80
2018-08-22T10:37:44.149Z,69.70
2018-08-22T10:38:47.544Z,69.60
2018-08-22T10:39:50.955Z,69.60
2018-08-22T10:40:55.439Z,70.10
2018-08-22T10:41:58.855Z,69.30
2018-08-22T10:43:02.252Z,68.80
2018-08-22T10:44:06.029Z,68.60
2018-08-22T10:45:10.467Z,68.50
2018-08-22T10:46:15.012Z,68.40
2018-08-22T10:47:18.417Z,68.30
2018-08-22T10:48:21.833Z,68.30
2018-08-22T10:49:25.247Z,68.20
2018-08-22T10:50:29.858Z,68.20
2018-08-22T10:51:33.263Z,68.20
2018-08-22T10:52:36.647Z,68.00
2018-08-22T10:53:40.043Z,68.00
2018-08-22T10:54:43.464Z,68.00
2018-08-22T10:55:48.011Z,67.80
2018-08-22T10:56:51.448Z,67.70
2018-08-22T10:57:54.821Z,67.80
2018-08-22T10:58:58.199Z,68.20
2018-08-22T11:00:01.617Z,68.80
2018-08-22T11:01:05.384Z,69.10
2018-08-22T11:02:08.807Z,69.20
2018-08-22T11:03:12.187Z,69.20
2018-08-22T11:04:15.591Z,69.10
2018-08-22T11:05:20.027Z,68.70
2018-08-22T11:06:24.186Z,68.50
2018-08-22T11:07:27.591Z,68.50
2018-08-22T11:08:30.979Z,68.30
2018-08-22T11:09:34.363Z,68.10
2018-08-22T11:10:38.850Z,67.90
2018-08-22T11:11:42.243Z,67.50
2018-08-22T11:12:45.623Z,67.40
2018-08-22T11:13:49.015Z,67.40
2018-08-22T11:14:52.423Z,67.30
2018-08-22T11:15:56.909Z,67.30
2018-08-22T11:17:00.301Z,67.30
2018-08-22T11:18:03.991Z,67.40
2018-08-22T11:19:07.424Z,67.50
2018-08-22T11:20:12.373Z,67.50
2018-08-22T11:21:27.664Z,67.20
2018-08-22T11:22:42.546Z,67.40
2018-08-22T11:23:57.211Z,66.90
2018-08-22T11:25:12.660Z,66.40
2018-08-22T11:26:28.132Z,66.10
2018-08-22T11:27:42.671Z,65.10
2018-08-22T11:28:57.219Z,64.40
2018-08-22T11:30:13.579Z,64.20
2018-08-22T11:31:29.088Z,63.60
2018-08-22T11:32:43.783Z,63.60
2018-08-22T11:33:58.523Z,63.60
2018-08-22T11:35:00.804Z,63.60
2018-08-22T11:36:04.650Z,63.80
2018-08-22T11:37:09.455Z,64.60
2018-08-22T11:38:12.833Z,64.90
2018-08-22T11:39:16.236Z,65.30
2018-08-22T11:40:21.130Z,65.40
2018-08-22T11:41:25.302Z,65.50
2018-08-22T11:42:28.731Z,65.70
2018-08-22T11:43:32.123Z,65.90
2018-08-22T11:44:35.551Z,66.10
2018-08-22T11:45:40.087Z,66.00
2018-08-22T11:46:43.520Z,66.00
2018-08-22T11:47:46.896Z,65.90
2018-08-22T11:48:50.287Z,65.80
2018-08-22T11:49:53.672Z,65.10
2018-08-22T11:50:58.052Z,64.50
2018-08-22T11:52:01.664Z,64.40
2018-08-22T11:53:05.264Z,64.30
2018-08-22T11:54:08.651Z,64.10
2018-08-22T11:55:12.941Z,64.10
2018-08-22T11:56:18.032Z,64.10
2018-08-22T11:57:21.452Z,63.90
2018-08-22T11:58:24.835Z,63.40
2018-08-22T11:59:28.243Z,63.10
2018-08-22T12:00:32.992Z,63.10
2018-08-22T12:01:36.427Z,63.90
2018-08-22T12:02:39.816Z,63.30
2018-08-22T12:03:49.967Z,63.20
2018-08-22T12:04:53.343Z,63.30
2018-08-22T12:05:58.045Z,63.50
2018-08-22T12:07:01.463Z,63.30
2018-08-22T12:08:04.859Z,62.40
2018-08-22T12:09:10.283Z,62.10
2018-08-22T12:10:15.607Z,61.80
2018-08-22T12:11:20.207Z,61.90
2018-08-22T12:12:23.611Z,62.10
2018-08-22T12:13:27.003Z,62.20
2018-08-22T12:14:30.467Z,62.30
2018-08-22T12:15:35.612Z,62.20
2018-08-22T12:16:39.624Z,62.30
2018-08-22T12:17:43.014Z,62.40
2018-08-22T12:18:46.389Z,62.20
2018-08-22T12:19:49.775Z,62.20
2018-08-22T12:20:54.201Z,62.40
2018-08-22T12:21:57.633Z,62.10
2018-08-22T12:23:01.035Z,61.70
2018-08-22T12:24:04.631Z,61.70
2018-08-22T12:25:09.127Z,61.80
2018-08-22T12:26:13.761Z,61.60
2018-08-22T12:27:17.235Z,61.60
2018-08-22T12:28:20.619Z,61.70
2018-08-22T12:29:24.015Z,61.70
2018-08-22T12:30:28.392Z,61.20
2018-08-22T12:31:31.812Z,61.20
2018-08-22T12:32:35.243Z,61.20
2018-08-22T12:33:38.635Z,61.20
2018-08-22T12:34:42.019Z,61.30
2018-08-22T12:35:46.876Z,61.50
2018-08-22T12:36:50.367Z,61.50
2018-08-22T12:37:53.751Z,61.50
2018-08-22T12:38:57.136Z,60.90
2018-08-22T12:40:00.516Z,60.70
2018-08-22T12:41:04.887Z,60.30
2018-08-22T12:42:08.324Z,59.80
2018-08-22T12:43:11.710Z,59.70
2018-08-22T12:44:15.088Z,59.80
2018-08-22T12:45:20.317Z,59.80
2018-08-22T12:46:24.524Z,59.50
2018-08-22T12:47:27.955Z,59.50
2018-08-22T12:48:31.519Z,59.20
2018-08-22T12:49:34.908Z,59.10
2018-08-22T12:50:39.376Z,59.00
2018-08-22T12:51:42.767Z,58.90
2018-08-22T12:52:46.175Z,58.90
2018-08-22T12:53:49.578Z,58.90
2018-08-22T12:54:52.995Z,58.80
2018-08-22T12:55:57.353Z,58.80
2018-08-22T12:57:00.779Z,58.60
2018-08-22T12:58:04.196Z,58.60
2018-08-22T12:59:07.587Z,58.70
2018-08-22T13:00:11.993Z,58.30
2018-08-22T13:01:16.380Z,58.30
2018-08-22T13:02:19.780Z,58.20
2018-08-22T13:03:23.235Z,58.10
2018-08-22T13:04:26.604Z,57.80
2018-08-22T13:05:31.015Z,57.70
2018-08-22T13:06:34.419Z,57.50
2018-08-22T13:07:37.818Z,57.40
2018-08-22T13:08:41.215Z,57.30
2018-08-22T13:09:44.583Z,57.40
2018-08-22T13:10:49.064Z,57.10
2018-08-22T13:11:52.491Z,56.90
2018-08-22T13:12:55.869Z,56.60
2018-08-22T13:13:59.276Z,56.60
2018-08-22T13:15:02.708Z,56.50
2018-08-22T13:16:07.615Z,56.30
2018-08-22T13:17:11.016Z,56.10
2018-08-22T13:18:14.386Z,56.00
2018-08-22T13:19:17.886Z,55.90
2018-08-22T13:20:23.006Z,55.70
2018-08-22T13:21:27.166Z,55.70
2018-08-22T13:22:30.820Z,55.30
2018-08-22T13:23:34.223Z,55.10
2018-08-22T13:24:37.681Z,54.80
2018-08-22T13:25:41.982Z,54.70
2018-08-22T13:26:45.383Z,54.70
2018-08-22T13:27:48.767Z,54.40
2018-08-22T13:28:52.176Z,54.40
2018-08-22T13:29:55.588Z,54.40
2018-08-22T13:30:59.977Z,54.30
2018-08-22T13:32:03.380Z,54.40
2018-08-22T13:33:06.747Z,54.40
2018-08-22T13:34:10.135Z,54.90
2018-08-22T13:35:14.518Z,54.20
2018-08-22T13:36:18.939Z,54.20
2018-08-22T13:37:22.324Z,54.20
2018-08-22T13:38:25.700Z,54.30
2018-08-22T13:39:29.084Z,54.50
2018-08-22T13:40:33.544Z,54.20
2018-08-22T13:41:36.967Z,54.00
2018-08-22T13:42:40.341Z,53.90
2018-08-22T13:43:43.723Z,53.70
2018-08-22T13:44:47.111Z,53.70
2018-08-22T13:45:51.633Z,53.70